Time;durP1;ratioP1;P1;durP2;ratioP2;P2;SDS_P1;SDS_P2;PMS_P1;PMS_P2;Temp;Humidity;BMP_temperature;BMP_pressure;BME280_temperature;BME280_humidity;BME280_pressure;Samples;Min_cycle;Max_cycle;Signal;HPM_P1;HPM_P2
2021/12/21 00:00:48;;;;;;;11.75;6.30;;;2.50;99.90;;;;;;5116828;28;20044;-70
2021/12/21 00:03:15;;;;;;;11.57;6.43;;;0.50;99.90;;;;;;5117443;28;20451;-70
2021/12/21 00:05:41;;;;;;;10.40;6.50;;;0.40;99.90;;;;;;5116635;28;20043;-70
2021/12/21 00:08:10;;;;;;;12.27;6.53;;;2.20;99.90;;;;;;5098600;28;20043;-70
2021/12/21 00:10:36;;;;;;;10.73;6.82;;;1.10;99.90;;;;;;5116508;28;20103;-69
2021/12/21 00:13:07;;;;;;;14.73;6.28;;;0.70;99.90;;;;;;5098329;28;20119;-69
2021/12/21 00:16:02;;;;;;;9.80;6.22;;;0.60;99.90;;;;;;5116480;28;20039;-69
2021/12/21 00:25:40;;;;;;;11.93;6.53;;;1.00;99.90;;;;;;5116667;28;20390;-69
2021/12/21 00:28:06;;;;;;;12.07;6.95;;;0.30;99.90;;;;;;5116394;28;20044;-69
2021/12/21 00:30:32;;;;;;;12.30;5.95;;;0.40;99.90;;;;;;5116486;28;20491;-69
2021/12/21 00:32:57;;;;;;;9.77;5.78;;;0.20;99.90;;;;;;5116249;28;20471;-69
2021/12/21 00:35:23;;;;;;;12.23;6.93;;;0.50;99.90;;;;;;5116953;28;20074;-70
2021/12/21 00:37:49;;;;;;;10.25;6.60;;;0.40;99.90;;;;;;5116177;28;20498;-70
2021/12/21 00:40:14;;;;;;;9.35;6.10;;;0.80;99.90;;;;;;5098959;28;20058;-69
2021/12/21 00:42:41;;;;;;;10.10;6.07;;;1.20;99.90;;;;;;5098439;28;20043;-69
2021/12/21 00:45:07;;;;;;;11.50;6.60;;;0.40;99.90;;;;;;5097802;28;20040;-69
2021/12/21 00:47:35;;;;;;;12.70;6.80;;;0.40;99.90;;;;;;5115679;28;20487;-69
2021/12/21 00:50:03;;;;;;;12.73;6.32;;;1.40;99.90;;;;;;5116237;28;20079;-69
2021/12/21 00:52:29;;;;;;;12.98;6.45;;;1.30;99.90;;;;;;5097987;28;20126;-70
2021/12/21 00:54:55;;;;;;;13.98;6.65;;;0.30;99.90;;;;;;5115848;28;20054;-69
2021/12/21 00:57:21;;;;;;;10.75;6.05;;;0.70;99.90;;;;;;5116305;28;20046;-70
2021/12/21 00:59:47;;;;;;;11.00;6.88;;;0.70;99.90;;;;;;5116291;28;20048;-70
2021/12/21 01:02:14;;;;;;;14.52;7.50;;;0.20;99.90;;;;;;5097759;28;20055;-70
2021/12/21 01:04:44;;;;;;;10.80;6.85;;;0.30;99.90;;;;;;5097399;28;20044;-70
2021/12/21 01:25:49;;;;;;;11.38;6.72;;;0.50;99.90;;;;;;5097537;28;20051;-69
2021/12/21 01:36:13;;;;;;;9.50;6.63;;;1.40;99.90;;;;;;5115836;28;20387;-69
2021/12/21 01:38:50;;;;;;;12.00;6.78;;;0.30;99.90;;;;;;5115096;28;20058;-69
2021/12/21 01:41:36;;;;;;;11.60;7.45;;;0.90;99.90;;;;;;5096799;28;20441;-69
2021/12/21 01:51:56;;;;;;;10.00;6.88;;;1.60;99.90;;;;;;5099717;28;20395;-69
2021/12/21 01:54:22;;;;;;;11.57;6.88;;;0.30;99.90;;;;;;5114673;28;20048;-69
2021/12/21 01:56:48;;;;;;;10.68;6.10;;;0.60;99.90;;;;;;5114704;28;20051;-69
2021/12/21 01:59:14;;;;;;;11.30;7.57;;;0.60;99.90;;;;;;5114592;28;20135;-69
2021/12/21 02:01:39;;;;;;;10.43;6.28;;;0.30;99.90;;;;;;5097177;28;20043;-69
2021/12/21 02:04:05;;;;;;;12.15;7.45;;;0.00;99.90;;;;;;5096440;28;20066;-69
2021/12/21 02:06:31;;;;;;;10.90;6.75;;;0.40;99.90;;;;;;5114998;28;20100;-69
2021/12/21 02:08:57;;;;;;;13.40;7.50;;;0.90;99.90;;;;;;5114444;28;20043;-69
2021/12/21 02:11:23;;;;;;;9.70;6.68;;;0.60;99.90;;;;;;5114990;28;20048;-69
2021/12/21 02:13:50;;;;;;;10.70;6.88;;;0.10;99.90;;;;;;5114448;28;20048;-69
2021/12/21 02:16:25;;;;;;;10.32;6.95;;;0.20;99.90;;;;;;5114393;28;20065;-69
2021/12/21 02:19:00;;;;;;;8.82;6.55;;;-0.10;99.90;;;;;;5096138;28;20048;-69
2021/12/21 02:21:35;;;;;;;10.00;6.68;;;0.00;99.90;;;;;;5114277;28;20063;-69
2021/12/21 02:24:06;;;;;;;11.48;6.53;;;0.10;99.90;;;;;;5097758;28;20445;-69
2021/12/21 02:29:11;;;;;;;7.95;5.63;;;1.10;99.90;;;;;;5114512;28;20148;-69
2021/12/21 02:31:40;;;;;;;9.40;6.60;;;0.70;99.90;;;;;;5114775;28;20051;-69
2021/12/21 02:34:07;;;;;;;9.30;6.13;;;0.80;99.90;;;;;;5096547;28;20047;-69
2021/12/21 02:36:33;;;;;;;9.40;6.22;;;0.00;99.90;;;;;;5096912;28;20088;-69
2021/12/21 02:39:00;;;;;;;10.10;6.60;;;0.10;99.90;;;;;;5114130;28;20043;-69
2021/12/21 02:41:26;;;;;;;10.88;5.80;;;-0.10;99.90;;;;;;5114094;28;20126;-69
2021/12/21 02:43:54;;;;;;;8.45;5.93;;;0.10;99.90;;;;;;5096412;28;20043;-69
2021/12/21 02:46:20;;;;;;;8.73;6.43;;;0.70;99.90;;;;;;5114580;28;20130;-69
2021/12/21 02:48:46;;;;;;;7.85;5.45;;;-0.20;99.90;;;;;;5114017;28;20044;-69
2021/12/21 02:51:12;;;;;;;7.55;6.10;;;-0.10;99.90;;;;;;5114570;28;20054;-69
2021/12/21 02:53:38;;;;;;;8.63;6.28;;;-0.20;99.90;;;;;;5114350;28;20051;-69
2021/12/21 02:56:04;;;;;;;8.13;5.68;;;-0.10;99.90;;;;;;5118170;28;20039;-69
2021/12/21 02:58:30;;;;;;;9.07;6.63;;;0.00;99.90;;;;;;5117801;28;20043;-69
2021/12/21 03:00:55;;;;;;;7.85;5.43;;;0.00;99.90;;;;;;5118075;28;20079;-69
2021/12/21 03:03:21;;;;;;;8.65;5.93;;;0.80;99.90;;;;;;5117951;28;20040;-69
2021/12/21 03:05:54;;;;;;;8.18;6.25;;;0.40;99.90;;;;;;5118143;28;20470;-69
2021/12/21 03:11:00;;;;;;;7.93;6.40;;;1.20;99.90;;;;;;5118109;28;20055;-69
2021/12/21 03:16:11;;;;;;;8.48;5.85;;;0.00;99.90;;;;;;5118112;28;20097;-69
2021/12/21 03:18:36;;;;;;;10.27;6.70;;;-0.50;99.90;;;;;;5117388;28;20426;-69
2021/12/21 03:21:02;;;;;;;8.52;6.03;;;-0.40;99.90;;;;;;5117379;28;20055;-69
2021/12/21 03:23:28;;;;;;;10.80;5.85;;;0.50;99.90;;;;;;5117597;28;20451;-70
2021/12/21 03:25:54;;;;;;;11.27;6.18;;;-0.10;99.90;;;;;;5118427;28;20115;-70
2021/12/21 03:28:19;;;;;;;10.20;6.85;;;-0.30;99.90;;;;;;5117899;28;20047;-69
2021/12/21 03:30:45;;;;;;;8.13;6.65;;;-0.30;99.90;;;;;;5117501;28;20486;-69
2021/12/21 03:33:11;;;;;;;8.75;5.95;;;-0.40;99.90;;;;;;5117466;28;20063;-69
2021/12/21 03:35:37;;;;;;;9.35;6.32;;;1.10;99.90;;;;;;5117381;28;20051;-69
2021/12/21 03:38:03;;;;;;;10.48;6.82;;;0.30;99.90;;;;;;5098897;28;20039;-69
2021/12/21 03:40:32;;;;;;;8.65;5.90;;;-0.10;99.90;;;;;;5099354;28;20067;-69
2021/12/21 03:42:58;;;;;;;8.45;6.30;;;0.60;99.90;;;;;;5117198;28;20065;-69
2021/12/21 03:45:24;;;;;;;9.55;5.82;;;-0.30;99.90;;;;;;5099020;28;20506;-69
2021/12/21 03:47:50;;;;;;;9.05;6.45;;;-0.30;99.90;;;;;;5117196;28;20047;-69
2021/12/21 03:50:19;;;;;;;10.25;6.63;;;0.80;99.90;;;;;;5117683;28;20051;-69
2021/12/21 03:52:45;;;;;;;9.60;6.35;;;-0.20;99.90;;;;;;5117132;28;20044;-69
2021/12/21 03:55:12;;;;;;;7.60;6.25;;;-0.40;99.90;;;;;;5098904;28;20051;-70
2021/12/21 03:57:38;;;;;;;8.38;6.10;;;0.50;99.90;;;;;;5117526;28;20047;-69
2021/12/21 04:00:11;;;;;;;8.80;5.88;;;-0.40;99.90;;;;;;5117223;28;20048;-69
2021/12/21 04:02:37;;;;;;;9.07;6.78;;;-0.40;99.90;;;;;;5116983;28;20047;-69
2021/12/21 04:05:03;;;;;;;7.78;5.90;;;-0.40;99.90;;;;;;5116773;28;20349;-69
2021/12/21 04:07:29;;;;;;;8.32;5.78;;;-0.20;99.90;;;;;;5098690;28;20047;-69
2021/12/21 04:09:55;;;;;;;8.88;6.43;;;-0.40;99.90;;;;;;5117337;28;20040;-69
2021/12/21 04:12:21;;;;;;;8.30;5.88;;;0.30;99.90;;;;;;5116680;28;20126;-69
2021/12/21 04:14:47;;;;;;;7.90;5.80;;;0.40;99.90;;;;;;5116695;28;20458;-69
2021/12/21 04:17:21;;;;;;;12.48;6.32;;;-0.40;99.90;;;;;;5116595;28;20031;-69
2021/12/21 04:19:47;;;;;;;7.70;5.95;;;-0.60;99.90;;;;;;5098661;28;20043;-69
2021/12/21 04:22:14;;;;;;;9.18;5.80;;;0.80;99.90;;;;;;5094596;28;20190;-69
2021/12/21 04:24:40;;;;;;;8.75;5.82;;;0.70;99.90;;;;;;5096547;28;20468;-69
2021/12/21 04:27:06;;;;;;;8.60;6.20;;;-0.50;99.90;;;;;;5094828;28;20051;-69
2021/12/21 04:29:32;;;;;;;8.55;6.03;;;-0.40;99.90;;;;;;5096020;28;20044;-69
2021/12/21 04:31:58;;;;;;;8.43;5.95;;;-0.60;99.90;;;;;;5095954;28;20048;-69
2021/12/21 04:34:23;;;;;;;10.15;6.38;;;-0.40;99.90;;;;;;5095894;28;20127;-69
2021/12/21 04:36:49;;;;;;;7.28;5.63;;;-0.40;99.90;;;;;;5096321;28;20048;-69
2021/12/21 04:41:59;;;;;;;10.75;6.43;;;0.10;99.90;;;;;;5096380;28;20054;-69
2021/12/21 04:44:25;;;;;;;6.93;5.88;;;-0.20;99.90;;;;;;5096147;28;20087;-69
2021/12/21 04:46:51;;;;;;;10.90;6.35;;;-0.40;99.90;;;;;;5094516;28;20133;-69
2021/12/21 04:49:17;;;;;;;6.95;5.78;;;0.40;99.90;;;;;;5095565;28;20495;-69
2021/12/21 04:51:42;;;;;;;6.75;5.50;;;-0.50;99.90;;;;;;5095519;28;20048;-69
2021/12/21 04:54:08;;;;;;;7.20;5.60;;;0.30;99.90;;;;;;5095549;28;20036;-69
2021/12/21 04:56:34;;;;;;;9.45;6.00;;;-0.20;99.90;;;;;;5096307;28;20051;-69
2021/12/21 04:58:59;;;;;;;7.95;6.22;;;-0.60;99.90;;;;;;5094775;28;20426;-69
2021/12/21 05:01:25;;;;;;;10.23;5.38;;;-0.50;99.90;;;;;;5095324;28;20044;-69
2021/12/21 05:03:51;;;;;;;6.22;5.38;;;0.30;99.90;;;;;;5095298;28;20036;-69
2021/12/21 05:06:19;;;;;;;9.52;5.63;;;1.30;99.90;;;;;;5094835;28;20079;-69
2021/12/21 05:08:52;;;;;;;6.85;5.68;;;-0.40;99.90;;;;;;5095199;28;20078;-69
2021/12/21 05:11:20;;;;;;;9.27;6.00;;;-0.30;99.90;;;;;;5095461;28;20480;-69
2021/12/21 05:13:45;;;;;;;8.65;6.20;;;-0.50;99.90;;;;;;5094869;28;20507;-69
2021/12/21 05:16:11;;;;;;;8.77;6.20;;;-0.30;99.90;;;;;;5094050;28;20052;-69
2021/12/21 05:18:37;;;;;;;8.60;6.50;;;1.20;99.90;;;;;;5093861;28;20097;-69
2021/12/21 05:21:03;;;;;;;8.55;6.65;;;-0.60;99.90;;;;;;5096082;28;20418;-69
2021/12/21 05:23:30;;;;;;;7.88;6.18;;;-0.60;99.90;;;;;;5097535;28;20093;-69
2021/12/21 05:25:56;;;;;;;10.60;6.53;;;0.40;99.90;;;;;;5115301;28;20072;-69
2021/12/21 05:28:22;;;;;;;9.90;6.20;;;0.10;99.90;;;;;;5080143;28;20052;-69
2021/12/21 05:30:48;;;;;;;10.13;6.30;;;-0.20;99.90;;;;;;5115156;28;20048;-69
2021/12/21 05:33:15;;;;;;;9.98;6.15;;;-0.70;99.90;;;;;;5114839;28;20549;-69
2021/12/21 05:35:42;;;;;;;7.47;6.63;;;-0.70;99.90;;;;;;5114989;28;20044;-69
2021/12/21 05:38:09;;;;;;;10.82;6.63;;;-0.60;99.90;;;;;;5115037;28;20043;-68
2021/12/21 05:40:42;;;;;;;9.60;6.00;;;-0.50;99.90;;;;;;5115004;28;20144;-68
2021/12/21 05:43:11;;;;;;;11.07;6.70;;;0.30;99.90;;;;;;5115528;28;20044;-68
2021/12/21 05:45:38;;;;;;;10.63;6.03;;;-0.40;99.90;;;;;;5115485;28;20047;-68
2021/12/21 05:48:04;;;;;;;11.60;6.45;;;-0.70;99.90;;;;;;5096670;28;20043;-68
2021/12/21 05:50:30;;;;;;;8.48;6.43;;;-0.70;99.90;;;;;;5096814;28;20093;-68
2021/12/21 05:52:56;;;;;;;9.68;6.10;;;-0.70;99.90;;;;;;5114797;28;20047;-68
2021/12/21 05:55:22;;;;;;;11.40;6.65;;;0.00;99.90;;;;;;5114692;28;20100;-68
2021/12/21 05:57:49;;;;;;;9.18;6.30;;;-0.30;99.90;;;;;;5114988;28;20051;-68
2021/12/21 06:00:18;;;;;;;10.18;7.13;;;-0.80;99.90;;;;;;5096630;28;20127;-68
2021/12/21 06:02:44;;;;;;;9.93;6.90;;;-0.80;99.90;;;;;;5096345;28;20052;-68
2021/12/21 06:05:10;;;;;;;9.60;7.18;;;-0.90;99.90;;;;;;5115341;28;20104;-68
2021/12/21 06:07:36;;;;;;;9.07;6.35;;;-0.80;99.90;;;;;;5114396;28;20040;-68
2021/12/21 06:10:11;;;;;;;10.40;6.57;;;-0.50;99.90;;;;;;5114503;28;20051;-68
2021/12/21 06:13:21;;;;;;;10.25;6.28;;;-0.70;99.90;;;;;;5097978;28;20044;-68
2021/12/21 06:15:35;;;;;;;9.60;6.35;;;-0.10;99.90;;;;;;5113244;28;20108;-68
2021/12/21 06:26:07;;;;;;;11.30;6.45;;;-0.90;99.90;;;;;;5114266;28;20134;-68
2021/12/21 06:28:33;;;;;;;10.05;6.18;;;-0.70;99.90;;;;;;5114191;28;20055;-68
2021/12/21 06:30:59;;;;;;;10.38;6.70;;;-0.80;99.90;;;;;;5113917;28;20491;-68
2021/12/21 06:33:25;;;;;;;8.07;6.18;;;-0.90;99.90;;;;;;5114165;28;20043;-68
2021/12/21 06:35:51;;;;;;;10.48;6.55;;;-0.70;99.90;;;;;;5114098;28;20440;-69
2021/12/21 06:38:17;;;;;;;9.00;6.18;;;-0.80;99.90;;;;;;5114681;28;20039;-68
2021/12/21 06:40:43;;;;;;;10.65;5.97;;;-1.00;99.90;;;;;;5114657;28;20043;-68
2021/12/21 06:43:13;;;;;;;8.90;6.78;;;-0.70;99.90;;;;;;5079033;28;20357;-68
2021/12/21 06:53:36;;;;;;;10.77;6.60;;;-0.30;99.90;;;;;;5114576;28;20059;-68
2021/12/21 06:56:03;;;;;;;10.80;7.43;;;-0.80;99.90;;;;;;5113968;28;20050;-68
2021/12/21 06:58:29;;;;;;;11.73;6.82;;;-0.90;99.90;;;;;;5095854;28;20047;-68
2021/12/21 07:00:55;;;;;;;12.73;6.80;;;-0.40;99.90;;;;;;5079246;28;20475;-68
2021/12/21 07:03:21;;;;;;;9.65;6.68;;;-0.90;99.90;;;;;;5113702;28;20147;-68
2021/12/21 07:05:48;;;;;;;8.65;6.38;;;-0.50;99.90;;;;;;5113657;28;20040;-69
2021/12/21 07:08:18;;;;;;;10.70;7.68;;;-0.80;99.90;;;;;;5096555;28;20053;-68
2021/12/21 07:10:53;;;;;;;10.65;7.20;;;-0.80;99.90;;;;;;5095789;28;20052;-68
2021/12/21 07:18:48;;;;;;;10.63;6.85;;;-0.90;99.90;;;;;;5113611;28;20506;-68
2021/12/21 07:21:14;;;;;;;11.13;6.07;;;0.30;99.90;;;;;;5113464;28;20085;-68
2021/12/21 07:23:40;;;;;;;7.57;5.82;;;-0.80;99.90;;;;;;5113577;28;20105;-68
2021/12/21 07:26:07;;;;;;;8.82;6.40;;;-0.90;99.90;;;;;;5079559;28;20047;-68
2021/12/21 07:28:33;;;;;;;9.32;6.40;;;-0.80;99.90;;;;;;5095183;28;20517;-68
2021/12/21 07:30:58;;;;;;;10.48;6.35;;;-1.10;99.90;;;;;;5095507;28;20093;-68
2021/12/21 07:33:24;;;;;;;6.78;5.65;;;0.00;99.90;;;;;;5113435;28;20430;-68
2021/12/21 07:35:51;;;;;;;9.30;5.97;;;-0.80;99.90;;;;;;5113372;28;20075;-68
2021/12/21 07:38:17;;;;;;;10.85;6.60;;;-1.00;99.90;;;;;;5113455;28;20048;-68
2021/12/21 07:40:43;;;;;;;11.68;6.07;;;-1.00;99.90;;;;;;5098022;28;20101;-68
2021/12/21 07:43:09;;;;;;;9.27;6.32;;;-0.90;99.90;;;;;;5117323;28;20094;-68
2021/12/21 07:45:35;;;;;;;11.38;6.85;;;-0.10;99.90;;;;;;5098937;28;20048;-68
2021/12/21 07:48:01;;;;;;;7.40;5.95;;;-1.10;99.90;;;;;;5117063;28;20101;-68
2021/12/21 07:50:27;;;;;;;9.18;5.50;;;-1.10;99.90;;;;;;5116979;28;20040;-68
2021/12/21 07:52:55;;;;;;;10.13;6.57;;;-0.70;99.90;;;;;;5098934;28;20452;-68
2021/12/21 07:55:22;;;;;;;12.07;5.95;;;-1.10;99.90;;;;;;5117483;28;20043;-68
2021/12/21 07:57:48;;;;;;;8.60;5.15;;;-0.60;99.90;;;;;;5098663;28;20048;-68
2021/12/21 08:00:14;;;;;;;8.65;6.38;;;-1.10;99.90;;;;;;5116807;28;20088;-68
2021/12/21 08:02:41;;;;;;;9.73;5.60;;;-1.00;99.90;;;;;;5099254;28;20047;-68
2021/12/21 08:05:10;;;;;;;14.05;9.23;;;-1.10;99.90;;;;;;5117184;28;20122;-68
2021/12/21 08:07:45;;;;;;;11.05;7.50;;;-1.00;99.90;;;;;;5081776;28;20055;-68
2021/12/21 08:10:20;;;;;;;12.43;6.72;;;-0.50;99.90;;;;;;5098841;28;20043;-68
2021/12/21 08:12:46;;;;;;;8.60;6.80;;;-1.20;99.90;;;;;;5117148;28;20055;-68
2021/12/21 08:15:12;;;;;;;10.02;6.95;;;-0.10;99.90;;;;;;5098405;28;20039;-68
2021/12/21 08:17:37;;;;;;;8.95;6.50;;;0.20;99.90;;;;;;5117313;28;20112;-68
2021/12/21 08:20:04;;;;;;;8.15;5.55;;;-0.90;99.90;;;;;;5116383;28;20044;-68
2021/12/21 08:22:29;;;;;;;10.85;6.40;;;-1.10;99.90;;;;;;5116471;28;20142;-68
2021/12/21 08:24:55;;;;;;;10.23;6.28;;;-0.10;99.90;;;;;;5116259;28;20130;-68
2021/12/21 08:27:21;;;;;;;9.65;6.85;;;-0.70;99.90;;;;;;5116250;28;20101;-68
2021/12/21 08:29:47;;;;;;;8.63;6.28;;;-1.00;99.90;;;;;;5081807;28;20066;-68
2021/12/21 08:32:12;;;;;;;9.95;6.38;;;-0.20;99.90;;;;;;5116937;28;20429;-68
2021/12/21 08:34:39;;;;;;;12.43;7.65;;;-0.30;99.90;;;;;;5116088;28;20429;-68
2021/12/21 08:37:05;;;;;;;13.85;7.38;;;-0.70;99.90;;;;;;5116030;28;20497;-68
2021/12/21 08:39:38;;;;;;;10.75;7.57;;;-1.00;99.90;;;;;;5116001;28;20094;-68
2021/12/21 08:42:05;;;;;;;8.95;6.68;;;-0.80;99.90;;;;;;5097814;28;20044;-68
2021/12/21 08:44:31;;;;;;;8.43;6.40;;;-1.00;99.90;;;;;;5097701;28;20076;-68
2021/12/21 08:46:58;;;;;;;9.35;6.35;;;-1.00;99.90;;;;;;5097521;28;20044;-68
2021/12/21 08:49:25;;;;;;;9.50;6.65;;;-0.60;99.90;;;;;;5097584;28;20056;-68
2021/12/21 08:51:51;;;;;;;9.23;6.10;;;-0.80;99.90;;;;;;5115314;28;20055;-68
2021/12/21 08:54:17;;;;;;;9.77;5.38;;;-0.80;99.90;;;;;;5098314;28;20452;-68
2021/12/21 08:56:44;;;;;;;9.35;5.53;;;-0.70;99.90;;;;;;5097678;28;20052;-69
2021/12/21 08:59:10;;;;;;;9.63;5.07;;;0.00;99.90;;;;;;5115641;28;20058;-69
2021/12/21 09:01:36;;;;;;;9.25;5.25;;;-0.80;99.90;;;;;;5115547;28;20047;-68
2021/12/21 09:04:02;;;;;;;7.78;4.70;;;-0.50;99.90;;;;;;5097543;28;20541;-68
2021/12/21 09:06:28;;;;;;;6.93;4.35;;;-0.70;99.90;;;;;;5115438;28;20054;-69
2021/12/21 09:08:54;;;;;;;9.60;4.55;;;-0.60;99.90;;;;;;5080832;28;20075;-69
2021/12/21 09:11:20;;;;;;;7.28;4.25;;;-0.60;99.90;;;;;;5115966;28;20510;-68
2021/12/21 09:13:45;;;;;;;9.75;4.20;;;0.10;99.90;;;;;;5115449;28;20050;-69
2021/12/21 09:16:11;;;;;;;6.30;4.07;;;-0.70;99.90;;;;;;5097424;28;20083;-68
2021/12/21 09:18:37;;;;;;;7.60;4.90;;;0.50;99.90;;;;;;5080923;28;20082;-69
2021/12/21 09:21:03;;;;;;;8.23;5.05;;;-0.50;99.90;;;;;;5115149;28;20051;-68
2021/12/21 09:23:29;;;;;;;11.90;5.38;;;-0.50;99.90;;;;;;5096962;28;20134;-69
2021/12/21 09:25:55;;;;;;;8.82;5.03;;;-0.50;99.90;;;;;;5115676;28;20052;-69
2021/12/21 09:28:20;;;;;;;8.25;4.57;;;-0.40;99.90;;;;;;5097005;28;20048;-68
2021/12/21 09:30:46;;;;;;;6.13;3.97;;;0.40;99.90;;;;;;5097080;28;20096;-68
2021/12/21 09:33:12;;;;;;;6.22;3.72;;;-0.40;99.90;;;;;;5115080;28;20497;-69
2021/12/21 09:35:38;;;;;;;6.13;3.72;;;-0.20;99.90;;;;;;5097177;28;20050;-69
2021/12/21 09:38:04;;;;;;;5.80;3.40;;;-0.20;99.90;;;;;;5114965;28;20043;-69
2021/12/21 09:40:31;;;;;;;7.18;3.35;;;-0.10;99.90;;;;;;5115018;28;20079;-68
2021/12/21 09:42:58;;;;;;;6.78;3.15;;;0.00;99.90;;;;;;5114885;28;20506;-69
2021/12/21 09:45:24;;;;;;;5.15;3.33;;;-0.10;99.90;;;;;;5114912;28;20043;-69
2021/12/21 09:47:50;;;;;;;4.70;3.03;;;-0.10;99.90;;;;;;5115513;28;20039;-70
2021/12/21 09:50:18;;;;;;;4.55;3.63;;;1.00;99.90;;;;;;5114755;28;20159;-69
2021/12/21 09:52:44;;;;;;;7.05;3.88;;;0.50;99.90;;;;;;5114663;28;20043;-69
2021/12/21 09:55:12;;;;;;;8.77;3.42;;;0.30;99.90;;;;;;5096828;28;20048;-68
2021/12/21 09:57:38;;;;;;;5.90;3.58;;;0.00;99.90;;;;;;5115518;28;20047;-72
2021/12/21 10:00:10;;;;;;;9.20;4.05;;;0.70;99.90;;;;;;5097149;28;20468;-69
2021/12/21 10:02:36;;;;;;;7.72;4.40;;;0.00;99.90;;;;;;5095747;28;20118;-69
2021/12/21 10:05:09;;;;;;;7.78;4.32;;;-0.10;99.90;;;;;;5114478;28;20044;-70
2021/12/21 10:07:35;;;;;;;8.10;4.45;;;0.00;99.90;;;;;;5114515;28;20048;-69
2021/12/21 10:10:10;;;;;;;10.18;4.55;;;0.40;99.90;;;;;;5096568;28;20086;-69
2021/12/21 10:12:45;;;;;;;6.25;3.45;;;0.80;99.90;;;;;;5096468;28;20050;-70
2021/12/21 10:15:15;;;;;;;7.32;3.45;;;0.30;99.90;;;;;;5114442;28;20118;-70
2021/12/21 10:18:00;;;;;;;7.82;3.55;;;0.20;99.90;;;;;;5114359;28;20054;-70
2021/12/21 10:20:44;;;;;;;5.72;3.83;;;0.30;99.90;;;;;;5114377;28;20054;-70
2021/12/21 10:23:23;;;;;;;6.20;3.90;;;0.80;99.90;;;;;;5114757;28;20055;-70
2021/12/21 10:26:10;;;;;;;8.13;3.97;;;0.80;99.90;;;;;;5115172;28;20440;-69
2021/12/21 10:28:39;;;;;;;8.73;3.92;;;0.40;99.90;;;;;;5114222;28;20050;-70
2021/12/21 10:31:32;;;;;;;8.07;3.92;;;0.70;99.90;;;;;;5096463;28;20051;-69
2021/12/21 10:34:01;;;;;;;6.45;3.47;;;0.50;99.90;;;;;;5114031;28;20051;-70
2021/12/21 10:36:29;;;;;;;5.78;3.60;;;1.20;99.90;;;;;;5114003;28;20047;-72
2021/12/21 10:39:00;;;;;;;7.07;4.00;;;0.60;99.90;;;;;;5096975;28;20100;-71
2021/12/21 10:41:42;;;;;;;8.13;4.40;;;0.80;99.90;;;;;;5114649;28;20177;-70
2021/12/21 10:44:16;;;;;;;6.72;3.97;;;0.70;99.90;;;;;;5095899;28;20040;-70
2021/12/21 10:46:48;;;;;;;7.03;3.40;;;0.70;99.90;;;;;;5114082;28;20066;-70
2021/12/21 10:49:17;;;;;;;12.30;4.60;;;1.40;99.90;;;;;;5096514;28;20046;-71
2021/12/21 10:51:51;;;;;;;6.43;4.07;;;0.90;99.90;;;;;;5096100;28;20058;-70
2021/12/21 10:54:46;;;;;;;10.48;4.63;;;1.70;99.90;;;;;;5096118;28;20056;-70
2021/12/21 10:57:23;;;;;;;8.30;4.32;;;1.00;99.90;;;;;;5114224;28;20051;-70
2021/12/21 10:59:52;;;;;;;6.13;3.70;;;1.80;99.90;;;;;;5114479;28;20055;-70
2021/12/21 11:02:27;;;;;;;9.02;4.20;;;0.90;99.90;;;;;;5113904;28;20055;-71
2021/12/21 11:05:02;;;;;;;6.20;3.90;;;1.10;99.90;;;;;;5094461;28;20351;-72
2021/12/21 11:07:47;;;;;;;7.20;4.00;;;1.10;99.90;;;;;;5092032;28;20193;-73
2021/12/21 11:10:26;;;;;;;10.50;4.15;;;1.20;99.90;;;;;;5110977;28;20035;-72
2021/12/21 11:12:56;;;;;;;5.55;3.45;;;1.70;99.90;;;;;;5092764;28;20059;-72
2021/12/21 11:15:31;;;;;;;5.93;3.83;;;1.20;99.90;;;;;;5112310;28;20058;-72
2021/12/21 11:18:07;;;;;;;7.97;4.07;;;1.20;99.90;;;;;;5114905;28;20147;-72
2021/12/21 11:20:37;;;;;;;10.65;4.90;;;1.50;99.90;;;;;;5097272;28;20131;-71
2021/12/21 11:23:06;;;;;;;6.90;4.80;;;1.30;99.90;;;;;;5114662;28;20062;-72
2021/12/21 11:25:34;;;;;;;6.88;4.82;;;1.00;99.90;;;;;;5096972;28;20127;-71
2021/12/21 11:28:02;;;;;;;10.27;4.20;;;1.60;99.90;;;;;;5079732;28;20104;-71
2021/12/21 11:30:29;;;;;;;5.93;4.03;;;2.30;99.90;;;;;;5113874;28;20051;-72
2021/12/21 11:32:57;;;;;;;10.13;4.45;;;2.10;99.90;;;;;;5096019;28;20058;-71
2021/12/21 11:38:07;;;;;;;6.18;3.75;;;1.60;99.90;;;;;;5113548;28;20536;-70
2021/12/21 11:40:39;;;;;;;6.90;3.83;;;1.90;99.90;;;;;;5114167;28;20126;-71
2021/12/21 11:43:22;;;;;;;6.43;3.72;;;1.80;99.90;;;;;;5114392;28;20059;-71
2021/12/21 11:46:11;;;;;;;7.55;4.18;;;1.70;99.90;;;;;;5079302;28;20051;-72
2021/12/21 11:48:58;;;;;;;10.95;4.10;;;2.30;99.90;;;;;;5095109;28;20087;-70
2021/12/21 11:51:26;;;;;;;7.82;4.18;;;3.00;99.90;;;;;;5096779;28;20051;-71
2021/12/21 11:53:53;;;;;;;7.05;3.67;;;1.70;99.90;;;;;;5113813;28;20052;-70
2021/12/21 11:56:26;;;;;;;10.02;4.15;;;2.10;99.90;;;;;;5078583;28;20052;-70
2021/12/21 11:58:54;;;;;;;8.30;4.30;;;2.50;99.90;;;;;;5113174;28;20199;-70
2021/12/21 12:01:26;;;;;;;6.55;3.47;;;2.00;99.90;;;;;;5095433;28;20141;-71
2021/12/21 12:04:04;;;;;;;5.10;3.78;;;1.90;99.90;;;;;;5078137;28;20455;-72
2021/12/21 12:06:52;;;;;;;7.43;4.03;;;2.20;99.90;;;;;;5114401;28;20055;-72
2021/12/21 12:09:36;;;;;;;5.10;3.47;;;1.60;99.90;;;;;;5114153;28;20118;-71
2021/12/21 12:12:08;;;;;;;5.82;3.53;;;2.10;99.90;;;;;;5109273;28;20055;-70
2021/12/21 12:14:36;;;;;;;7.47;3.58;;;2.30;99.90;;;;;;5114030;28;20036;-72
2021/12/21 12:17:14;;;;;;;6.85;3.72;;;2.20;99.90;;;;;;5079385;28;20083;-71
2021/12/21 12:19:43;;;;;;;5.63;3.47;;;2.10;99.90;;;;;;5114663;28;20087;-69
2021/12/21 12:22:15;;;;;;;7.85;3.60;;;2.20;99.90;;;;;;5095554;28;20070;-70
2021/12/21 12:24:57;;;;;;;7.55;3.80;;;3.60;99.90;;;;;;5095410;28;20487;-72
2021/12/21 12:27:27;;;;;;;9.20;3.97;;;2.20;99.90;;;;;;5078428;28;20054;-72
2021/12/21 12:29:58;;;;;;;7.25;3.25;;;2.30;99.90;;;;;;5095612;28;20036;-72
2021/12/21 12:32:39;;;;;;;5.63;3.38;;;2.30;99.90;;;;;;5113897;28;20066;-70
2021/12/21 12:35:20;;;;;;;6.45;3.65;;;2.10;99.90;;;;;;5095241;28;20077;-72
2021/12/21 12:37:55;;;;;;;7.90;4.07;;;2.40;99.90;;;;;;5113845;28;20047;-72
2021/12/21 12:40:43;;;;;;;9.00;4.03;;;2.60;99.90;;;;;;5095569;28;20039;-72
2021/12/21 12:43:18;;;;;;;8.32;4.10;;;2.80;99.90;;;;;;5078122;28;20477;-73
2021/12/21 12:45:51;;;;;;;7.00;4.30;;;2.60;99.90;;;;;;5113688;28;20078;-70
2021/12/21 12:48:32;;;;;;;5.90;3.20;;;2.50;99.90;;;;;;5094935;28;20039;-72
2021/12/21 12:51:04;;;;;;;4.22;2.95;;;2.70;99.90;;;;;;5095067;28;20115;-71
2021/12/21 12:53:42;;;;;;;6.00;3.35;;;3.90;99.90;;;;;;5095521;28;20100;-71
2021/12/21 12:56:10;;;;;;;9.07;3.60;;;2.50;99.90;;;;;;5094794;28;20043;-73
2021/12/21 12:58:47;;;;;;;6.85;3.75;;;3.30;99.90;;;;;;5094663;28;20383;-73
2021/12/21 13:01:19;;;;;;;7.25;3.60;;;3.30;99.90;;;;;;5079309;28;20081;-74
2021/12/21 13:03:45;;;;;;;6.27;3.23;;;2.40;99.90;;;;;;5094820;28;20046;-73
2021/12/21 13:06:14;;;;;;;5.20;3.25;;;2.40;99.90;;;;;;5077775;28;20047;-73
2021/12/21 13:08:42;;;;;;;10.15;3.50;;;3.40;99.90;;;;;;5078219;28;20055;-71
2021/12/21 13:11:09;;;;;;;7.63;3.67;;;2.60;99.90;;;;;;5112726;28;20075;-74
2021/12/21 13:13:37;;;;;;;5.60;3.03;;;2.60;99.90;;;;;;5113299;28;20035;-73
2021/12/21 13:16:12;;;;;;;6.80;3.20;;;3.40;99.90;;;;;;5094538;28;20165;-73
2021/12/21 13:18:47;;;;;;;6.97;4.15;;;2.40;99.90;;;;;;5077789;28;20104;-70
2021/12/21 13:21:36;;;;;;;6.32;3.65;;;2.60;99.90;;;;;;5115244;28;20051;-71
2021/12/21 13:24:10;;;;;;;5.75;3.30;;;2.70;99.90;;;;;;5080200;28;20426;-71
2021/12/21 13:26:51;;;;;;;5.32;3.33;;;2.80;99.90;;;;;;5115344;28;20048;-71
2021/12/21 13:29:22;;;;;;;5.13;3.17;;;2.70;99.90;;;;;;5081329;28;20055;-71
2021/12/21 13:31:54;;;;;;;6.70;4.00;;;2.70;99.90;;;;;;5115258;28;20043;-71
2021/12/21 13:34:21;;;;;;;5.40;3.00;;;2.70;99.90;;;;;;5097491;28;20051;-71
2021/12/21 13:36:54;;;;;;;8.70;3.88;;;2.80;99.90;;;;;;5096632;28;20059;-71
2021/12/21 13:39:43;;;;;;;7.13;3.83;;;3.20;99.90;;;;;;5115342;28;20122;-71
2021/12/21 13:42:22;;;;;;;6.38;4.05;;;2.70;99.90;;;;;;5070773;28;20055;-71
2021/12/21 13:44:57;;;;;;;6.95;3.55;;;2.70;99.90;;;;;;5114931;28;20079;-71
2021/12/21 13:47:37;;;;;;;6.75;3.85;;;3.70;99.90;;;;;;5114820;28;20475;-70
2021/12/21 13:50:25;;;;;;;6.18;3.65;;;2.70;99.90;;;;;;5115465;28;20100;-70
2021/12/21 13:52:59;;;;;;;8.63;3.65;;;3.00;99.90;;;;;;5097743;28;20133;-71
2021/12/21 13:55:36;;;;;;;5.88;3.92;;;3.60;99.90;;;;;;5114784;28;20044;-71
2021/12/21 13:58:06;;;;;;;6.88;3.80;;;3.00;99.90;;;;;;5097663;28;20051;-71
2021/12/21 14:00:37;;;;;;;6.50;3.75;;;3.20;99.90;;;;;;5096480;28;20051;-71
2021/12/21 14:03:27;;;;;;;6.78;4.00;;;3.10;99.90;;;;;;5115491;28;20388;-71
2021/12/21 14:06:13;;;;;;;8.50;3.63;;;2.70;99.90;;;;;;5097384;28;20460;-71
2021/12/21 14:08:43;;;;;;;8.82;3.97;;;2.50;99.90;;;;;;5096560;28;20047;-70
2021/12/21 14:11:11;;;;;;;4.97;3.50;;;2.90;99.90;;;;;;5114435;28;20046;-70
2021/12/21 14:13:42;;;;;;;7.35;4.03;;;2.70;99.90;;;;;;5115306;28;20071;-70
2021/12/21 14:16:12;;;;;;;5.15;4.07;;;2.90;99.90;;;;;;5096813;28;20043;-71
2021/12/21 14:18:41;;;;;;;6.25;3.92;;;2.60;99.90;;;;;;5114403;28;20048;-70